Time;durP1;ratioP1;P1;durP2;ratioP2;P2;SDS_P1;SDS_P2;PMS_P1;PMS_P2;Temp;Humidity;BMP_temperature;BMP_pressure;BME280_temperature;BME280_humidity;BME280_pressure;Samples;Min_cycle;Max_cycle;Signal;HPM_P1;HPM_P2
2023/06/20 00:05:52;;;;;;;;;;;;;;;;;;6320860;22;19925;-93
2023/06/20 00:25:33;;;;;;;;;;;;;;;;;;;;;
2023/06/20 00:31:57;;;;;;;;;;;;;;;;;;;;;
2023/06/20 00:35:00;;;;;;;;;;;;;;;;;;6013401;23;19959;-96
2023/06/20 00:37:43;;;;;;;;;;;;;;;;;;;;;
2023/06/20 00:49:01;;;;;;;;;;;;;;;;;;;;;
2023/06/20 00:51:49;;;;;;;;;;;;;;;;;;6164784;23;20392;-94
2023/06/20 00:57:41;;;;;;;;;;;;;;;;;;6158902;23;19955;-96
2023/06/20 01:00:12;;;;;;;;;;;;;;;;;;6168497;23;19935;-96
2023/06/20 01:39:16;;;;;;;;;;;;;;;;;;6335708;22;19918;-95
2023/06/20 01:41:42;;;;;;;;;;;;;;;;;;6287272;22;20320;-95
2023/06/20 01:44:16;;;;;;;;;;;;;;;;;;6289314;22;19914;-95
2023/06/20 01:46:52;;;;;;;;;;;;;;;;;;6318386;22;19949;-95
2023/06/20 01:49:21;;;;;;;;;;;;;;;;;;6292662;22;19914;-93
2023/06/20 01:51:47;;;;;;;;;;;;;;;;;;6290316;22;20317;-94
2023/06/20 01:54:16;;;;;;;;;;;;;;;;;;6278950;22;19918;-95
2023/06/20 01:56:44;;;;;;;;;;;;;;;;;;6294464;22;19938;-94
2023/06/20 01:59:18;;;;;;;;;;;;;;;;;;6344992;22;19914;-96
2023/06/20 02:04:56;;;;;;;;;;;;;;;;;;6204136;23;19920;-94
2023/06/20 02:07:37;;;;;;;;;;;;;;;;;;6155824;23;19915;-94
2023/06/20 02:10:06;;;;;;;;;;;;;;;;;;6285051;22;19985;-94
2023/06/20 02:15:23;;;;;;;;;;;;;;;;;;6328838;22;19937;-96
2023/06/20 02:20:41;;;;;;;;;;;;;;;;;;6314050;22;19926;-93
2023/06/20 02:23:29;;;;;;;;;;;;;;;;;;6320903;22;19925;-95
2023/06/20 02:29:01;;;;;;;;;;;;;;;;;;6295666;22;19919;-96
2023/06/20 02:31:40;;;;;;;;;;;;;;;;;;6302202;22;19915;-92
2023/06/20 02:34:19;;;;;;;;;;;;;;;;;;6327205;22;19915;-94
2023/06/20 02:36:47;;;;;;;;;;;;;;;;;;6317385;22;19915;-92
2023/06/20 02:39:25;;;;;;;;;;;;;;;;;;6291021;22;20326;-96
2023/06/20 02:41:53;;;;;;;;;;;;;;;;;;6292358;22;20301;-96
2023/06/20 02:44:22;;;;;;;;;;;;;;;;;;6288492;22;19937;-95
2023/06/20 02:46:48;;;;;;;;;;;;;;;;;;6297998;22;19952;-93
2023/06/20 02:49:17;;;;;;;;;;;;;;;;;;6296670;22;20007;-95
2023/06/20 02:51:43;;;;;;;;;;;;;;;;;;6293913;22;19942;-92
2023/06/20 02:54:26;;;;;;;;;;;;;;;;;;6301065;22;20337;-94
2023/06/20 02:56:57;;;;;;;;;;;;;;;;;;6356575;22;19915;-92
2023/06/20 02:59:36;;;;;;;;;;;;;;;;;;6306187;22;20335;-96
2023/06/20 03:02:03;;;;;;;;;;;;;;;;;;6332450;22;19963;-93
2023/06/20 03:04:35;;;;;;;;;;;;;;;;;;6308476;22;19914;-94
2023/06/20 03:07:20;;;;;;;;;;;;;;;;;;6359537;22;19922;-94
2023/06/20 03:09:59;;;;;;;;;;;;;;;;;;6335632;22;19918;-94
2023/06/20 03:12:29;;;;;;;;;;;;;;;;;;6326308;22;19977;-92
2023/06/20 03:15:05;;;;;;;;;;;;;;;;;;6331026;22;19976;-92
2023/06/20 03:17:37;;;;;;;;;;;;;;;;;;6300971;22;19919;-95
2023/06/20 03:26:13;;;;;;;;;;;;;;;;;;;;;
2023/06/20 03:50:01;;;;;;;;;;;;;;;;;;;;;
2023/06/20 03:52:48;;;;;;;;;;;;;;;;;;6324461;22;19962;-96
2023/06/20 03:55:22;;;;;;;;;;;;;;;;;;6321230;22;19930;-95
2023/06/20 03:58:16;;;;;;;;;;;;;;;;;;;;;
2023/06/20 04:04:34;;;;;;;;;;;;;;;;;;6203306;23;19916;-92
2023/06/20 04:10:23;;;;;;;;;;;;;;;;;;6177521;23;19920;-96
2023/06/20 04:15:50;;;;;;;;;;;;;;;;;;6252311;23;20247;-94
2023/06/20 04:27:56;;;;;;;;;;;;;;;;;;6186180;23;19916;-94
2023/06/20 04:30:24;;;;;;;;;;;;;;;;;;6186033;23;20396;-94
2023/06/20 04:33:02;;;;;;;;;;;;;;;;;;6209540;22;19914;-95
2023/06/20 04:50:03;;;;;;;;;;;;;;;;;;6202044;23;19927;-96
2023/06/20 05:02:23;;;;;;;;;;;;;;;;;;6124689;23;19920;-93
2023/06/20 05:27:54;;;;;;;;;;;;;;;;;;;;;
2023/06/20 05:30:30;;;;;;;;;;;;;;;;;;6314980;22;19972;-93
2023/06/20 05:33:27;;;;;;;;;;;;;;;;;;;;;
2023/06/20 05:36:11;;;;;;;;;;;;;;;;;;6285700;22;19938;-95
2023/06/20 05:38:40;;;;;;;;;;;;;;;;;;6276928;22;19919;-95
2023/06/20 05:41:14;;;;;;;;;;;;;;;;;;6274264;22;19922;-91
2023/06/20 05:43:48;;;;;;;;;;;;;;;;;;6303235;22;20138;-90
2023/06/20 05:46:14;;;;;;;;;;;;;;;;;;6256087;22;20165;-89
2023/06/20 05:48:40;;;;;;;;;;;;;;;;;;6281107;22;19937;-92
2023/06/20 05:51:06;;;;;;;;;;;;;;;;;;6258017;22;19915;-92
2023/06/20 05:53:32;;;;;;;;;;;;;;;;;;6286425;22;19915;-91
2023/06/20 05:55:58;;;;;;;;;;;;;;;;;;6263761;22;19937;-90
2023/06/20 05:58:24;;;;;;;;;;;;;;;;;;6297343;22;19940;-91
2023/06/20 06:00:50;;;;;;;;;;;;;;;;;;6283645;22;19923;-91
2023/06/20 06:03:18;;;;;;;;;;;;;;;;;;6255526;22;20298;-92
2023/06/20 06:05:44;;;;;;;;;;;;;;;;;;6255365;22;19919;-91
2023/06/20 06:08:12;;;;;;;;;;;;;;;;;;6280949;22;20120;-92
2023/06/20 06:10:38;;;;;;;;;;;;;;;;;;6255622;22;19915;-91
2023/06/20 06:13:04;;;;;;;;;;;;;;;;;;6280843;22;19992;-91
2023/06/20 06:15:30;;;;;;;;;;;;;;;;;;6255285;22;19926;-92
2023/06/20 06:17:56;;;;;;;;;;;;;;;;;;6254855;22;19959;-93
2023/06/20 06:20:23;;;;;;;;;;;;;;;;;;6255351;22;19918;-93
2023/06/20 06:22:50;;;;;;;;;;;;;;;;;;6280858;22;19915;-92
2023/06/20 06:25:16;;;;;;;;;;;;;;;;;;6280931;22;19990;-93
2023/06/20 06:27:42;;;;;;;;;;;;;;;;;;6254105;22;19979;-91
2023/06/20 06:30:08;;;;;;;;;;;;;;;;;;6280439;22;19915;-91
2023/06/20 06:32:34;;;;;;;;;;;;;;;;;;6280281;22;19915;-92
2023/06/20 06:35:00;;;;;;;;;;;;;;;;;;6280292;22;19919;-88
2023/06/20 06:37:26;;;;;;;;;;;;;;;;;;6279913;22;19972;-90
2023/06/20 06:39:52;;;;;;;;;;;;;;;;;;6279949;22;19964;-90
2023/06/20 06:42:18;;;;;;;;;;;;;;;;;;6279824;22;19997;-88
2023/06/20 06:44:43;;;;;;;;;;;;;;;;;;6279737;22;19986;-88
2023/06/20 06:47:09;;;;;;;;;;;;;;;;;;6279492;22;20351;-89
2023/06/20 06:49:35;;;;;;;;;;;;;;;;;;6253543;22;19915;-88
2023/06/20 06:52:01;;;;;;;;;;;;;;;;;;6279744;22;19968;-89
2023/06/20 06:54:27;;;;;;;;;;;;;;;;;;6279784;22;19914;-89
2023/06/20 06:56:53;;;;;;;;;;;;;;;;;;6279876;22;19922;-91
2023/06/20 06:59:19;;;;;;;;;;;;;;;;;;6280055;22;19938;-91
2023/06/20 07:01:45;;;;;;;;;;;;;;;;;;6279864;22;19919;-92
2023/06/20 07:04:11;;;;;;;;;;;;;;;;;;6279813;22;19914;-91
2023/06/20 07:06:37;;;;;;;;;;;;;;;;;;6279609;22;19953;-91
2023/06/20 07:09:03;;;;;;;;;;;;;;;;;;6279922;22;19967;-91
2023/06/20 07:11:29;;;;;;;;;;;;;;;;;;6254216;22;19914;-91
2023/06/20 07:13:55;;;;;;;;;;;;;;;;;;6254586;22;19923;-90
2023/06/20 07:16:21;;;;;;;;;;;;;;;;;;6280675;22;19937;-94
2023/06/20 07:18:46;;;;;;;;;;;;;;;;;;6255061;22;19921;-93
2023/06/20 07:21:12;;;;;;;;;;;;;;;;;;6255899;22;19919;-93
2023/06/20 07:23:38;;;;;;;;;;;;;;;;;;6254852;22;19965;-89
2023/06/20 07:26:04;;;;;;;;;;;;;;;;;;6279545;22;20032;-92
2023/06/20 07:28:30;;;;;;;;;;;;;;;;;;6279804;22;20327;-91
2023/06/20 07:30:56;;;;;;;;;;;;;;;;;;6254140;22;19958;-90
2023/06/20 07:33:22;;;;;;;;;;;;;;;;;;6279670;22;19985;-90
2023/06/20 07:35:48;;;;;;;;;;;;;;;;;;6279388;22;20359;-89
2023/06/20 07:38:14;;;;;;;;;;;;;;;;;;6306948;22;19919;-89
2023/06/20 07:40:41;;;;;;;;;;;;;;;;;;6253734;22;19929;-89
2023/06/20 07:43:07;;;;;;;;;;;;;;;;;;6279230;22;19919;-89
2023/06/20 07:45:33;;;;;;;;;;;;;;;;;;6253688;22;20358;-87
2023/06/20 07:47:59;;;;;;;;;;;;;;;;;;6253501;22;19921;-88
2023/06/20 07:50:25;;;;;;;;;;;;;;;;;;6253995;22;19942;-88
2023/06/20 07:52:51;;;;;;;;;;;;;;;;;;6306816;22;19977;-89
2023/06/20 07:55:17;;;;;;;;;;;;;;;;;;6279277;22;20305;-88
2023/06/20 07:57:43;;;;;;;;;;;;;;;;;;6253632;22;19922;-87
2023/06/20 08:00:10;;;;;;;;;;;;;;;;;;6279208;22;19915;-87
2023/06/20 08:02:37;;;;;;;;;;;;;;;;;;6253714;22;19915;-92
2023/06/20 08:05:04;;;;;;;;;;;;;;;;;;6254023;22;19915;-92
2023/06/20 08:07:30;;;;;;;;;;;;;;;;;;6280141;22;19915;-92
2023/06/20 08:09:56;;;;;;;;;;;;;;;;;;6254506;22;19925;-92
2023/06/20 08:12:22;;;;;;;;;;;;;;;;;;6279234;22;20274;-93
2023/06/20 08:14:47;;;;;;;;;;;;;;;;;;6279815;22;19948;-91
2023/06/20 08:17:14;;;;;;;;;;;;;;;;;;6253948;22;19964;-92
2023/06/20 08:19:40;;;;;;;;;;;;;;;;;;6254590;22;19984;-92
2023/06/20 08:22:05;;;;;;;;;;;;;;;;;;6253741;22;20324;-92
2023/06/20 08:24:31;;;;;;;;;;;;;;;;;;6253930;22;19922;-91
2023/06/20 08:26:57;;;;;;;;;;;;;;;;;;6279826;22;19915;-91
2023/06/20 08:29:23;;;;;;;;;;;;;;;;;;6254463;22;19972;-93
2023/06/20 08:31:49;;;;;;;;;;;;;;;;;;6279443;22;20344;-93
2023/06/20 08:34:15;;;;;;;;;;;;;;;;;;6254538;22;19994;-93
2023/06/20 08:36:43;;;;;;;;;;;;;;;;;;6254195;22;19915;-92
2023/06/20 08:39:09;;;;;;;;;;;;;;;;;;6280433;22;19914;-93
2023/06/20 08:41:35;;;;;;;;;;;;;;;;;;6279920;22;19919;-92
2023/06/20 08:44:01;;;;;;;;;;;;;;;;;;6279790;22;20269;-92
2023/06/20 08:46:27;;;;;;;;;;;;;;;;;;6279950;22;19930;-94
2023/06/20 08:48:53;;;;;;;;;;;;;;;;;;6254679;22;19994;-93
2023/06/20 08:51:19;;;;;;;;;;;;;;;;;;6280176;22;19922;-93
2023/06/20 08:53:46;;;;;;;;;;;;;;;;;;6279812;22;19923;-92
2023/06/20 08:56:12;;;;;;;;;;;;;;;;;;6253801;22;20010;-92
2023/06/20 08:58:38;;;;;;;;;;;;;;;;;;6253800;22;20001;-93
2023/06/20 09:01:07;;;;;;;;;;;;;;;;;;6279151;22;20272;-93
2023/06/20 09:03:33;;;;;;;;;;;;;;;;;;6253899;22;20324;-93
2023/06/20 09:05:58;;;;;;;;;;;;;;;;;;6253839;22;19929;-94
2023/06/20 09:08:25;;;;;;;;;;;;;;;;;;6254867;22;19992;-93
2023/06/20 09:10:50;;;;;;;;;;;;;;;;;;6254495;22;20388;-93
2023/06/20 09:13:16;;;;;;;;;;;;;;;;;;6257011;22;19936;-94
2023/06/20 09:15:42;;;;;;;;;;;;;;;;;;6257601;22;19915;-94
2023/06/20 09:18:09;;;;;;;;;;;;;;;;;;6283553;22;19915;-95
2023/06/20 09:20:35;;;;;;;;;;;;;;;;;;6284001;22;19919;-93
2023/06/20 09:23:02;;;;;;;;;;;;;;;;;;6257891;22;19915;-94
2023/06/20 09:25:27;;;;;;;;;;;;;;;;;;6283153;22;19942;-94
2023/06/20 09:27:53;;;;;;;;;;;;;;;;;;6264796;22;20252;-96
2023/06/20 09:30:19;;;;;;;;;;;;;;;;;;6258354;22;19993;-94
2023/06/20 09:32:45;;;;;;;;;;;;;;;;;;6258522;22;19915;-95
2023/06/20 09:35:11;;;;;;;;;;;;;;;;;;6257369;22;20244;-94
2023/06/20 09:37:37;;;;;;;;;;;;;;;;;;6255773;22;19992;-94
2023/06/20 09:40:04;;;;;;;;;;;;;;;;;;6256699;22;19933;-90
2023/06/20 09:42:30;;;;;;;;;;;;;;;;;;6282023;22;19919;-90
2023/06/20 09:44:55;;;;;;;;;;;;;;;;;;6282267;22;19915;-88
2023/06/20 09:47:21;;;;;;;;;;;;;;;;;;6256933;22;19985;-87
2023/06/20 09:49:47;;;;;;;;;;;;;;;;;;6282253;22;19983;-88
2023/06/20 09:52:14;;;;;;;;;;;;;;;;;;6282603;22;20113;-88
2023/06/20 09:54:40;;;;;;;;;;;;;;;;;;6283262;22;19941;-88
2023/06/20 09:57:06;;;;;;;;;;;;;;;;;;6256593;22;19981;-87
2023/06/20 09:59:32;;;;;;;;;;;;;;;;;;6282108;22;19921;-89
2023/06/20 10:01:58;;;;;;;;;;;;;;;;;;6256446;22;20302;-87
2023/06/20 10:04:24;;;;;;;;;;;;;;;;;;6256753;22;19919;-88
2023/06/20 10:06:50;;;;;;;;;;;;;;;;;;6256232;22;19950;-87
2023/06/20 10:09:16;;;;;;;;;;;;;;;;;;6281966;22;19930;-88
2023/06/20 10:11:42;;;;;;;;;;;;;;;;;;6282135;22;19916;-88
2023/06/20 10:14:08;;;;;;;;;;;;;;;;;;6282540;22;19915;-89
2023/06/20 10:16:34;;;;;;;;;;;;;;;;;;6282462;22;19915;-89
2023/06/20 10:19:02;;;;;;;;;;;;;;;;;;6283257;22;19927;-89
2023/06/20 10:21:29;;;;;;;;;;;;;;;;;;6282881;22;19919;-89
2023/06/20 10:23:55;;;;;;;;;;;;;;;;;;6281851;22;19921;-87
2023/06/20 10:26:21;;;;;;;;;;;;;;;;;;6280198;22;19914;-88
2023/06/20 10:28:47;;;;;;;;;;;;;;;;;;6254741;22;20010;-89
2023/06/20 10:31:13;;;;;;;;;;;;;;;;;;6280145;22;19922;-90
2023/06/20 10:33:39;;;;;;;;;;;;;;;;;;6254666;22;19915;-88
2023/06/20 10:36:05;;;;;;;;;;;;;;;;;;6280534;22;19915;-88
2023/06/20 10:38:31;;;;;;;;;;;;;;;;;;6280512;22;19925;-88
2023/06/20 10:40:57;;;;;;;;;;;;;;;;;;6255108;22;20221;-88
2023/06/20 10:43:22;;;;;;;;;;;;;;;;;;6281463;22;19919;-93
2023/06/20 10:45:48;;;;;;;;;;;;;;;;;;6255340;22;20279;-93
2023/06/20 10:48:14;;;;;;;;;;;;;;;;;;6254855;22;19915;-93
2023/06/20 10:50:41;;;;;;;;;;;;;;;;;;6264622;22;19918;-94
2023/06/20 10:53:07;;;;;;;;;;;;;;;;;;6262605;22;19915;-95
2023/06/20 10:55:33;;;;;;;;;;;;;;;;;;6286772;22;19921;-96
2023/06/20 10:57:59;;;;;;;;;;;;;;;;;;6262369;22;19915;-95
2023/06/20 11:00:25;;;;;;;;;;;;;;;;;;6285000;22;20229;-94
2023/06/20 11:02:51;;;;;;;;;;;;;;;;;;6258075;22;19923;-95
2023/06/20 11:05:16;;;;;;;;;;;;;;;;;;6254986;22;19915;-89
2023/06/20 11:07:44;;;;;;;;;;;;;;;;;;6254119;22;19960;-89
2023/06/20 11:10:09;;;;;;;;;;;;;;;;;;6257492;22;19914;-94
2023/06/20 11:12:35;;;;;;;;;;;;;;;;;;6257377;22;19922;-94
2023/06/20 11:15:01;;;;;;;;;;;;;;;;;;6256241;22;19926;-94
2023/06/20 11:17:27;;;;;;;;;;;;;;;;;;6258735;22;20301;-93
2023/06/20 11:19:53;;;;;;;;;;;;;;;;;;6261020;22;19919;-92
2023/06/20 11:22:19;;;;;;;;;;;;;;;;;;6263829;22;19914;-92
2023/06/20 11:24:45;;;;;;;;;;;;;;;;;;6257829;22;20011;-93
2023/06/20 11:27:14;;;;;;;;;;;;;;;;;;6282774;22;19915;-95
2023/06/20 11:29:40;;;;;;;;;;;;;;;;;;6257007;22;19926;-93
2023/06/20 11:32:06;;;;;;;;;;;;;;;;;;6256819;22;20342;-94
2023/06/20 11:34:32;;;;;;;;;;;;;;;;;;6258486;22;19946;-93
2023/06/20 11:36:58;;;;;;;;;;;;;;;;;;6288506;22;19922;-94
2023/06/20 11:39:25;;;;;;;;;;;;;;;;;;6265308;22;19915;-95
2023/06/20 11:41:51;;;;;;;;;;;;;;;;;;6271182;22;19923;-96
2023/06/20 11:44:17;;;;;;;;;;;;;;;;;;6266432;22;19961;-96
2023/06/20 11:46:46;;;;;;;;;;;;;;;;;;6284652;22;19923;-95
2023/06/20 11:49:16;;;;;;;;;;;;;;;;;;6280934;22;20335;-95
2023/06/20 11:51:42;;;;;;;;;;;;;;;;;;6262173;22;19915;-96
2023/06/20 11:54:12;;;;;;;;;;;;;;;;;;6262728;22;20308;-96
2023/06/20 11:56:38;;;;;;;;;;;;;;;;;;6263827;22;19941;-96
2023/06/20 11:59:08;;;;;;;;;;;;;;;;;;6265005;22;19919;-96
2023/06/20 12:01:52;;;;;;;;;;;;;;;;;;6264244;22;19925;-94
2023/06/20 12:04:42;;;;;;;;;;;;;;;;;;6203952;23;19920;-92
2023/06/20 12:07:08;;;;;;;;;;;;;;;;;;6213078;22;19919;-94
2023/06/20 12:09:34;;;;;;;;;;;;;;;;;;6254740;22;19965;-94
2023/06/20 12:12:00;;;;;;;;;;;;;;;;;;6254459;22;19919;-93
2023/06/20 12:14:26;;;;;;;;;;;;;;;;;;6254685;22;19919;-92
2023/06/20 12:16:52;;;;;;;;;;;;;;;;;;6280366;22;19914;-94
2023/06/20 12:19:20;;;;;;;;;;;;;;;;;;6255040;22;19915;-94
2023/06/20 12:21:45;;;;;;;;;;;;;;;;;;6280482;22;19923;-96
2023/06/20 12:24:11;;;;;;;;;;;;;;;;;;6257418;22;19938;-96
2023/06/20 12:26:37;;;;;;;;;;;;;;;;;;6264959;22;20328;-96
2023/06/20 12:29:03;;;;;;;;;;;;;;;;;;6292277;22;19915;-96
2023/06/20 12:31:30;;;;;;;;;;;;;;;;;;6289069;22;19915;-96
2023/06/20 12:33:56;;;;;;;;;;;;;;;;;;6269669;22;19929;-96
2023/06/20 12:36:25;;;;;;;;;;;;;;;;;;6322230;22;19918;-96
2023/06/20 12:38:51;;;;;;;;;;;;;;;;;;6269077;22;19925;-96
2023/06/20 12:41:18;;;;;;;;;;;;;;;;;;6316130;22;19959;-95
2023/06/20 12:43:44;;;;;;;;;;;;;;;;;;6290178;22;19922;-96
2023/06/20 12:46:10;;;;;;;;;;;;;;;;;;6262402;22;19914;-92
2023/06/20 12:48:36;;;;;;;;;;;;;;;;;;6254070;22;19962;-96
2023/06/20 12:51:01;;;;;;;;;;;;;;;;;;6262413;22;20072;-94
2023/06/20 12:53:28;;;;;;;;;;;;;;;;;;6254873;22;19986;-95
2023/06/20 12:55:54;;;;;;;;;;;;;;;;;;6280981;22;20386;-94
2023/06/20 12:58:20;;;;;;;;;;;;;;;;;;6254178;22;19969;-94
2023/06/20 13:00:47;;;;;;;;;;;;;;;;;;6254316;22;19931;-93
2023/06/20 13:03:13;;;;;;;;;;;;;;;;;;6254720;22;19915;-94
2023/06/20 13:05:39;;;;;;;;;;;;;;;;;;6254838;22;19930;-95
2023/06/20 13:08:05;;;;;;;;;;;;;;;;;;6254724;22;19919;-96
2023/06/20 13:10:30;;;;;;;;;;;;;;;;;;6256555;22;19915;-94
2023/06/20 13:12:58;;;;;;;;;;;;;;;;;;6254372;22;19915;-95
2023/06/20 13:15:24;;;;;;;;;;;;;;;;;;6254590;22;19922;-95
2023/06/20 13:17:50;;;;;;;;;;;;;;;;;;6280493;22;19921;-94
2023/06/20 13:20:16;;;;;;;;;;;;;;;;;;6254760;22;20279;-93
2023/06/20 13:22:42;;;;;;;;;;;;;;;;;;6255564;22;19957;-94
2023/06/20 13:25:08;;;;;;;;;;;;;;;;;;6255001;22;19963;-91
2023/06/20 13:27:34;;;;;;;;;;;;;;;;;;6260073;22;19922;-94
2023/06/20 13:30:04;;;;;;;;;;;;;;;;;;6282673;22;19964;-92
2023/06/20 13:32:30;;;;;;;;;;;;;;;;;;6259328;22;20285;-94
2023/06/20 13:34:56;;;;;;;;;;;;;;;;;;6260918;22;19930;-94
2023/06/20 13:37:24;;;;;;;;;;;;;;;;;;6260581;22;19935;-93
2023/06/20 13:39:58;;;;;;;;;;;;;;;;;;6260465;22;19937;-95
2023/06/20 13:42:27;;;;;;;;;;;;;;;;;;6267131;22;19926;-95
2023/06/20 13:44:53;;;;;;;;;;;;;;;;;;6261944;22;19918;-96
2023/06/20 13:47:22;;;;;;;;;;;;;;;;;;6260097;22;19919;-95
2023/06/20 13:49:54;;;;;;;;;;;;;;;;;;6288160;22;19915;-96
2023/06/20 13:52:20;;;;;;;;;;;;;;;;;;6259698;22;19941;-92
2023/06/20 13:54:46;;;;;;;;;;;;;;;;;;6258899;22;19989;-94
2023/06/20 13:57:12;;;;;;;;;;;;;;;;;;6259376;22;19903;-96
2023/06/20 13:59:38;;;;;;;;;;;;;;;;;;6257733;22;19918;-93
2023/06/20 14:02:03;;;;;;;;;;;;;;;;;;6256537;22;19942;-94
2023/06/20 14:04:29;;;;;;;;;;;;;;;;;;6256694;22;19915;-95
2023/06/20 14:06:55;;;;;;;;;;;;;;;;;;6281799;22;20048;-96
2023/06/20 14:09:23;;;;;;;;;;;;;;;;;;6256875;22;19922;-95
2023/06/20 14:11:49;;;;;;;;;;;;;;;;;;6256730;22;20297;-94
2023/06/20 14:14:14;;;;;;;;;;;;;;;;;;6256253;22;19933;-94
2023/06/20 14:16:40;;;;;;;;;;;;;;;;;;6282116;22;19914;-95
2023/06/20 14:19:06;;;;;;;;;;;;;;;;;;6256516;22;20290;-95
2023/06/20 14:21:32;;;;;;;;;;;;;;;;;;6256461;22;19919;-94
2023/06/20 14:23:58;;;;;;;;;;;;;;;;;;6281966;22;20219;-94
2023/06/20 14:26:24;;;;;;;;;;;;;;;;;;6258317;22;19914;-93
2023/06/20 14:28:56;;;;;;;;;;;;;;;;;;6262514;22;19915;-94
2023/06/20 14:31:25;;;;;;;;;;;;;;;;;;6285972;22;19922;-95
2023/06/20 14:33:53;;;;;;;;;;;;;;;;;;6283165;22;19915;-96
2023/06/20 14:36:20;;;;;;;;;;;;;;;;;;6283854;22;19986;-92
2023/06/20 14:38:47;;;;;;;;;;;;;;;;;;6255704;22;19962;-91
2023/06/20 14:41:13;;;;;;;;;;;;;;;;;;6255930;22;19919;-91
2023/06/20 14:43:39;;;;;;;;;;;;;;;;;;6256760;22;20268;-94
2023/06/20 14:46:08;;;;;;;;;;;;;;;;;;6258354;22;19938;-93
2023/06/20 14:48:36;;;;;;;;;;;;;;;;;;6283422;22;19915;-92
2023/06/20 14:51:03;;;;;;;;;;;;;;;;;;6256377;22;20248;-94
2023/06/20 14:53:33;;;;;;;;;;;;;;;;;;6256456;22;19994;-94
2023/06/20 14:55:59;;;;;;;;;;;;;;;;;;6256259;22;19984;-92
2023/06/20 14:58:25;;;;;;;;;;;;;;;;;;6255183;22;20340;-92
2023/06/20 15:00:51;;;;;;;;;;;;;;;;;;6255961;22;20263;-92
2023/06/20 15:03:17;;;;;;;;;;;;;;;;;;6281334;22;19927;-95
2023/06/20 15:05:43;;;;;;;;;;;;;;;;;;6254920;22;20021;-94
2023/06/20 15:08:09;;;;;;;;;;;;;;;;;;6255621;22;20274;-93
2023/06/20 15:10:35;;;;;;;;;;;;;;;;;;6255794;22;19922;-93
2023/06/20 15:13:01;;;;;;;;;;;;;;;;;;6255432;22;19915;-92
2023/06/20 15:15:28;;;;;;;;;;;;;;;;;;6256579;22;19922;-94
2023/06/20 15:17:55;;;;;;;;;;;;;;;;;;6256046;22;20167;-94
2023/06/20 15:20:21;;;;;;;;;;;;;;;;;;6256671;22;19915;-93
2023/06/20 15:22:47;;;;;;;;;;;;;;;;;;6257037;22;19921;-94
2023/06/20 15:25:13;;;;;;;;;;;;;;;;;;6257862;22;19915;-94
2023/06/20 15:27:39;;;;;;;;;;;;;;;;;;6255306;22;19915;-94
2023/06/20 15:30:05;;;;;;;;;;;;;;;;;;6255431;22;19937;-94
2023/06/20 15:32:31;;;;;;;;;;;;;;;;;;6256438;22;19986;-93
2023/06/20 15:34:57;;;;;;;;;;;;;;;;;;6256320;22;19915;-96
2023/06/20 15:37:23;;;;;;;;;;;;;;;;;;6256981;22;19936;-94
2023/06/20 15:39:49;;;;;;;;;;;;;;;;;;6260740;22;19914;-96
2023/06/20 15:42:15;;;;;;;;;;;;;;;;;;6283510;22;19962;-96
2023/06/20 15:44:41;;;;;;;;;;;;;;;;;;6282854;22;19937;-96
2023/06/20 15:47:07;;;;;;;;;;;;;;;;;;6282989;22;19914;-96
2023/06/20 15:49:33;;;;;;;;;;;;;;;;;;6256747;22;19914;-95
2023/06/20 15:51:59;;;;;;;;;;;;;;;;;;6259776;22;19914;-94
2023/06/20 15:54:25;;;;;;;;;;;;;;;;;;6280459;22;19922;-96
2023/06/20 15:56:51;;;;;;;;;;;;;;;;;;6257483;22;20251;-96
2023/06/20 15:59:17;;;;;;;;;;;;;;;;;;6283514;22;19960;-96
2023/06/20 16:01:43;;;;;;;;;;;;;;;;;;6257260;22;20244;-96
2023/06/20 16:04:09;;;;;;;;;;;;;;;;;;6260775;22;19995;-96
2023/06/20 16:06:35;;;;;;;;;;;;;;;;;;6257666;22;19914;-96
2023/06/20 16:09:02;;;;;;;;;;;;;;;;;;6255223;22;19915;-93
2023/06/20 16:11:29;;;;;;;;;;;;;;;;;;6284933;22;19922;-96
2023/06/20 16:13:55;;;;;;;;;;;;;;;;;;6289824;22;19915;-95
2023/06/20 16:16:21;;;;;;;;;;;;;;;;;;6261582;22;19937;-96
2023/06/20 16:18:51;;;;;;;;;;;;;;;;;;6264167;22;19915;-96
2023/06/20 16:21:19;;;;;;;;;;;;;;;;;;6264058;22;19923;-94
2023/06/20 16:23:50;;;;;;;;;;;;;;;;;;6281728;22;20388;-95
2023/06/20 16:26:16;;;;;;;;;;;;;;;;;;6255825;22;19919;-96
2023/06/20 16:28:42;;;;;;;;;;;;;;;;;;6264034;22;19915;-94
2023/06/20 16:31:11;;;;;;;;;;;;;;;;;;6286553;22;20324;-94
2023/06/20 16:33:37;;;;;;;;;;;;;;;;;;6284115;22;19951;-95
2023/06/20 16:36:03;;;;;;;;;;;;;;;;;;6283925;22;19915;-96
2023/06/20 16:38:29;;;;;;;;;;;;;;;;;;6258082;22;19980;-96
2023/06/20 16:40:55;;;;;;;;;;;;;;;;;;6284677;22;20316;-96
2023/06/20 16:43:22;;;;;;;;;;;;;;;;;;6281832;22;19922;-91
2023/06/20 16:45:48;;;;;;;;;;;;;;;;;;6281622;22;19915;-93
2023/06/20 16:48:14;;;;;;;;;;;;;;;;;;6255432;22;19921;-93
2023/06/20 16:50:43;;;;;;;;;;;;;;;;;;6282136;22;19915;-94
2023/06/20 16:53:09;;;;;;;;;;;;;;;;;;6255466;22;19922;-93
2023/06/20 16:55:35;;;;;;;;;;;;;;;;;;6255822;22;19914;-94
2023/06/20 16:58:01;;;;;;;;;;;;;;;;;;6255971;22;20226;-91
2023/06/20 17:00:27;;;;;;;;;;;;;;;;;;6281353;22;19921;-91
2023/06/20 17:02:53;;;;;;;;;;;;;;;;;;6257036;22;19925;-96
2023/06/20 17:05:19;;;;;;;;;;;;;;;;;;6284485;22;19914;-96
2023/06/20 17:07:47;;;;;;;;;;;;;;;;;;6258672;22;19954;-96
2023/06/20 17:10:16;;;;;;;;;;;;;;;;;;6283232;22;20033;-96
2023/06/20 17:12:44;;;;;;;;;;;;;;;;;;6263323;22;19991;-95
2023/06/20 17:15:10;;;;;;;;;;;;;;;;;;6264912;22;19915;-95
2023/06/20 17:17:42;;;;;;;;;;;;;;;;;;6322421;22;19915;-94
2023/06/20 17:20:13;;;;;;;;;;;;;;;;;;6270420;22;20019;-96
2023/06/20 17:22:39;;;;;;;;;;;;;;;;;;6291125;22;19925;-96
2023/06/20 17:25:05;;;;;;;;;;;;;;;;;;6293358;22;19902;-94
2023/06/20 17:27:31;;;;;;;;;;;;;;;;;;6271661;22;19915;-96
2023/06/20 17:30:00;;;;;;;;;;;;;;;;;;6297722;22;19950;-95
2023/06/20 17:32:26;;;;;;;;;;;;;;;;;;6273252;22;19975;-95
2023/06/20 17:34:54;;;;;;;;;;;;;;;;;;6272347;22;20324;-95
2023/06/20 17:37:21;;;;;;;;;;;;;;;;;;6327273;22;19915;-95
2023/06/20 17:39:50;;;;;;;;;;;;;;;;;;6271134;22;19936;-95
2023/06/20 17:42:16;;;;;;;;;;;;;;;;;;6286155;22;19958;-96
2023/06/20 17:44:42;;;;;;;;;;;;;;;;;;6259785;22;20151;-95
2023/06/20 17:47:08;;;;;;;;;;;;;;;;;;6284655;22;19915;-95
2023/06/20 17:49:34;;;;;;;;;;;;;;;;;;6259179;22;19946;-93
2023/06/20 17:52:07;;;;;;;;;;;;;;;;;;6264389;22;19915;-94
2023/06/20 17:54:33;;;;;;;;;;;;;;;;;;6260471;22;19955;-96
2023/06/20 17:57:00;;;;;;;;;;;;;;;;;;6257751;22;19958;-95
2023/06/20 17:59:29;;;;;;;;;;;;;;;;;;6286725;22;19926;-96
2023/06/20 18:02:01;;;;;;;;;;;;;;;;;;6285558;22;20089;-96
2023/06/20 18:04:26;;;;;;;;;;;;;;;;;;6259492;22;19971;-96
2023/06/20 18:06:52;;;;;;;;;;;;;;;;;;6287069;22;19954;-95
2023/06/20 18:09:18;;;;;;;;;;;;;;;;;;6274548;22;19926;-96
2023/06/20 18:14:45;;;;;;;;;;;;;;;;;;6326497;22;19942;-96
2023/06/20 18:17:11;;;;;;;;;;;;;;;;;;6256494;22;19922;-96
2023/06/20 18:19:37;;;;;;;;;;;;;;;;;;6256711;22;19922;-96
2023/06/20 18:22:03;;;;;;;;;;;;;;;;;;6282010;22;19937;-96
2023/06/20 18:24:29;;;;;;;;;;;;;;;;;;6256493;22;19922;-96
2023/06/20 18:26:55;;;;;;;;;;;;;;;;;;6282122;22;19915;-96
2023/06/20 18:29:21;;;;;;;;;;;;;;;;;;6255977;22;19922;-96
2023/06/20 18:31:48;;;;;;;;;;;;;;;;;;6282048;22;20421;-93
2023/06/20 18:34:14;;;;;;;;;;;;;;;;;;6256605;22;19910;-93
2023/06/20 18:36:40;;;;;;;;;;;;;;;;;;6255714;22;19915;-94
2023/06/20 18:39:06;;;;;;;;;;;;;;;;;;6255600;22;20243;-95
2023/06/20 18:41:33;;;;;;;;;;;;;;;;;;6258315;22;19931;-93
2023/06/20 18:43:59;;;;;;;;;;;;;;;;;;6257758;22;20270;-96
2023/06/20 18:46:25;;;;;;;;;;;;;;;;;;6254135;22;19946;-95
2023/06/20 18:48:52;;;;;;;;;;;;;;;;;;6254525;22;19917;-93
2023/06/20 18:51:18;;;;;;;;;;;;;;;;;;6255780;22;19915;-96
2023/06/20 18:53:44;;;;;;;;;;;;;;;;;;6255745;22;19921;-96
2023/06/20 18:56:10;;;;;;;;;;;;;;;;;;6254697;22;19986;-94
2023/06/20 18:58:36;;;;;;;;;;;;;;;;;;6255300;22;19925;-96
2023/06/20 19:01:04;;;;;;;;;;;;;;;;;;6255480;22;19918;-96
2023/06/20 19:03:30;;;;;;;;;;;;;;;;;;6256632;22;19968;-94
2023/06/20 19:05:56;;;;;;;;;;;;;;;;;;6256503;22;19922;-94
2023/06/20 19:08:22;;;;;;;;;;;;;;;;;;6256297;22;19986;-96
2023/06/20 19:10:49;;;;;;;;;;;;;;;;;;6253716;22;20281;-93
2023/06/20 19:13:15;;;;;;;;;;;;;;;;;;6254362;22;19968;-91
2023/06/20 19:15:41;;;;;;;;;;;;;;;;;;6254495;22;19915;-90
2023/06/20 19:18:07;;;;;;;;;;;;;;;;;;6280132;22;19964;-92
2023/06/20 19:20:37;;;;;;;;;;;;;;;;;;6280223;22;19915;-92
2023/06/20 19:23:04;;;;;;;;;;;;;;;;;;6254372;22;19922;-92
2023/06/20 19:25:30;;;;;;;;;;;;;;;;;;6254300;22;20371;-94
2023/06/20 19:27:57;;;;;;;;;;;;;;;;;;6254095;22;19918;-94
2023/06/20 19:30:24;;;;;;;;;;;;;;;;;;6254699;22;20340;-93
2023/06/20 19:32:50;;;;;;;;;;;;;;;;;;6254341;22;19916;-92
2023/06/20 19:35:16;;;;;;;;;;;;;;;;;;6280010;22;19944;-92
2023/06/20 19:37:42;;;;;;;;;;;;;;;;;;6279516;22;19989;-91
2023/06/20 19:40:08;;;;;;;;;;;;;;;;;;6254405;22;19964;-92
2023/06/20 19:42:34;;;;;;;;;;;;;;;;;;6253776;22;19923;-92
2023/06/20 19:45:00;;;;;;;;;;;;;;;;;;6253778;22;19922;-91
2023/06/20 19:47:26;;;;;;;;;;;;;;;;;;6255172;22;19919;-92
2023/06/20 19:49:52;;;;;;;;;;;;;;;;;;6254904;22;19977;-92
2023/06/20 19:52:18;;;;;;;;;;;;;;;;;;6254514;22;20266;-92
2023/06/20 19:54:44;;;;;;;;;;;;;;;;;;6254840;22;20066;-93
2023/06/20 19:57:09;;;;;;;;;;;;;;;;;;6254031;22;19922;-92